sensor_id;sensor_type;location;lat;lon;timestamp;pressure;altitude;pressure_sealevel;temperature
19061;BMP280;9663;48.996;8.334;2023-06-14T00:01:44;99729.53;;;21.68
19061;BMP280;9663;48.996;8.334;2023-06-14T00:04:14;99725.66;;;21.61
19061;BMP280;9663;48.996;8.334;2023-06-14T00:06:42;99726.84;;;21.56
19061;BMP280;9663;48.996;8.334;2023-06-14T00:09:13;99728.84;;;21.51
19061;BMP280;9663;48.996;8.334;2023-06-14T00:11:41;99735.16;;;21.45
19061;BMP280;9663;48.996;8.334;2023-06-14T00:14:07;99736.84;;;21.46
19061;BMP280;9663;48.996;8.334;2023-06-14T00:16:33;99726.59;;;21.45
19061;BMP280;9663;48.996;8.334;2023-06-14T00:19:01;99722.38;;;21.44
19061;BMP280;9663;48.996;8.334;2023-06-14T00:21:30;99714.69;;;21.42
19061;BMP280;9663;48.996;8.334;2023-06-14T00:23:57;99726.59;;;21.45
19061;BMP280;9663;48.996;8.334;2023-06-14T00:26:23;99726.59;;;21.45
19061;BMP280;9663;48.996;8.334;2023-06-14T00:28:49;99724.97;;;21.44
19061;BMP280;9663;48.996;8.334;2023-06-14T00:31:14;99724.84;;;21.45
19061;BMP280;9663;48.996;8.334;2023-06-14T00:33:40;99720.53;;;21.46
19061;BMP280;9663;48.996;8.334;2023-06-14T00:36:06;99723.84;;;21.48
19061;BMP280;9663;48.996;8.334;2023-06-14T00:38:31;99725.41;;;21.50
19061;BMP280;9663;48.996;8.334;2023-06-14T00:40:57;99715.00;;;21.52
19061;BMP280;9663;48.996;8.334;2023-06-14T00:43:23;99711.34;;;21.56
19061;BMP280;9663;48.996;8.334;2023-06-14T00:45:48;99712.91;;;21.58
19061;BMP280;9663;48.996;8.334;2023-06-14T00:48:15;99709.25;;;21.62
19061;BMP280;9663;48.996;8.334;2023-06-14T00:50:41;99709.09;;;21.65
19061;BMP280;9663;48.996;8.334;2023-06-14T00:53:07;99709.66;;;21.70
19061;BMP280;9663;48.996;8.334;2023-06-14T00:55:33;99704.31;;;21.73
19061;BMP280;9663;48.996;8.334;2023-06-14T00:57:59;99718.78;;;21.76
19061;BMP280;9663;48.996;8.334;2023-06-14T01:00:25;99714.28;;;21.79
19061;BMP280;9663;48.996;8.334;2023-06-14T01:02:51;99713.16;;;21.83
19061;BMP280;9663;48.996;8.334;2023-06-14T01:05:17;99716.31;;;21.88
19061;BMP280;9663;48.996;8.334;2023-06-14T01:08:38;99711.38;;;21.85
19061;BMP280;9663;48.996;8.334;2023-06-14T01:11:07;99711.47;;;21.97
19061;BMP280;9663;48.996;8.334;2023-06-14T01:13:41;99714.59;;;22.02
19061;BMP280;9663;48.996;8.334;2023-06-14T01:16:08;99715.91;;;22.09
19061;BMP280;9663;48.996;8.334;2023-06-14T01:18:36;99717.31;;;22.15
19061;BMP280;9663;48.996;8.334;2023-06-14T01:21:02;99713.56;;;22.20
19061;BMP280;9663;48.996;8.334;2023-06-14T01:23:32;99718.56;;;22.23
19061;BMP280;9663;48.996;8.334;2023-06-14T01:25:59;99701.94;;;22.27
19061;BMP280;9663;48.996;8.334;2023-06-14T01:28:27;99712.00;;;22.31
19061;BMP280;9663;48.996;8.334;2023-06-14T01:31:01;99709.25;;;22.34
19061;BMP280;9663;48.996;8.334;2023-06-14T01:33:32;99713.38;;;22.37
19061;BMP280;9663;48.996;8.334;2023-06-14T01:36:00;99716.69;;;22.39
19061;BMP280;9663;48.996;8.334;2023-06-14T01:38:28;99714.88;;;22.41
19061;BMP280;9663;48.996;8.334;2023-06-14T01:40:58;99716.59;;;22.40
19061;BMP280;9663;48.996;8.334;2023-06-14T01:43:25;99714.88;;;22.41
19061;BMP280;9663;48.996;8.334;2023-06-14T01:45:54;99714.97;;;22.39
19061;BMP280;9663;48.996;8.334;2023-06-14T01:48:20;99717.63;;;22.38
19061;BMP280;9663;48.996;8.334;2023-06-14T01:50:49;99711.72;;;22.36
19061;BMP280;9663;48.996;8.334;2023-06-14T01:53:15;99722.16;;;22.34
19061;BMP280;9663;48.996;8.334;2023-06-14T01:55:41;99722.25;;;22.33
19061;BMP280;9663;48.996;8.334;2023-06-14T01:58:12;99724.09;;;22.31
19061;BMP280;9663;48.996;8.334;2023-06-14T02:00:38;99723.44;;;22.28
19061;BMP280;9663;48.996;8.334;2023-06-14T02:03:04;99716.78;;;22.24
19061;BMP280;9663;48.996;8.334;2023-06-14T02:05:30;99719.53;;;22.21
19061;BMP280;9663;48.996;8.334;2023-06-14T02:07:56;99722.47;;;22.15
19061;BMP280;9663;48.996;8.334;2023-06-14T02:10:22;99720.31;;;22.07
19061;BMP280;9663;48.996;8.334;2023-06-14T02:12:48;99722.59;;;21.98
19061;BMP280;9663;48.996;8.334;2023-06-14T02:15:13;99716.16;;;21.91
19061;BMP280;9663;48.996;8.334;2023-06-14T02:17:43;99721.94;;;21.81
19061;BMP280;9663;48.996;8.334;2023-06-14T02:20:09;99731.94;;;21.71
19061;BMP280;9663;48.996;8.334;2023-06-14T02:22:35;99740.31;;;21.61
19061;BMP280;9663;48.996;8.334;2023-06-14T02:25:01;99741.84;;;21.49
19061;BMP280;9663;48.996;8.334;2023-06-14T02:27:27;99739.81;;;21.39
19061;BMP280;9663;48.996;8.334;2023-06-14T02:29:52;99747.06;;;21.33
19061;BMP280;9663;48.996;8.334;2023-06-14T02:32:18;99751.81;;;21.25
19061;BMP280;9663;48.996;8.334;2023-06-14T02:34:44;99752.97;;;21.19
19061;BMP280;9663;48.996;8.334;2023-06-14T02:37:09;99744.63;;;21.14
19061;BMP280;9663;48.996;8.334;2023-06-14T02:39:36;99744.84;;;21.11
19061;BMP280;9663;48.996;8.334;2023-06-14T02:42:02;99760.38;;;21.10
19061;BMP280;9663;48.996;8.334;2023-06-14T02:44:29;99759.53;;;21.09
19061;BMP280;9663;48.996;8.334;2023-06-14T02:46:55;99756.22;;;21.07
19061;BMP280;9663;48.996;8.334;2023-06-14T02:49:22;99755.38;;;21.07
19061;BMP280;9663;48.996;8.334;2023-06-14T02:51:48;99756.22;;;21.07
19061;BMP280;9663;48.996;8.334;2023-06-14T02:54:13;99757.97;;;21.07
19061;BMP280;9663;48.996;8.334;2023-06-14T02:56:39;99764.03;;;21.06
19061;BMP280;9663;48.996;8.334;2023-06-14T02:59:06;99763.19;;;21.05
19061;BMP280;9663;48.996;8.334;2023-06-14T03:01:33;99768.44;;;21.04
19061;BMP280;9663;48.996;8.334;2023-06-14T03:04:09;99758.94;;;21.04
19061;BMP280;9663;48.996;8.334;2023-06-14T03:06:35;99765.78;;;21.05
19061;BMP280;9663;48.996;8.334;2023-06-14T03:09:03;99757.13;;;21.06
19061;BMP280;9663;48.996;8.334;2023-06-14T03:11:32;99769.03;;;21.09
19061;BMP280;9663;48.996;8.334;2023-06-14T03:13:58;99762.09;;;21.09
19061;BMP280;9663;48.996;8.334;2023-06-14T03:16:24;99768.94;;;21.10
19061;BMP280;9663;48.996;8.334;2023-06-14T03:18:51;99768.88;;;21.12
19061;BMP280;9663;48.996;8.334;2023-06-14T03:21:18;99767.84;;;21.14
19061;BMP280;9663;48.996;8.334;2023-06-14T03:23:48;99768.78;;;21.13
19061;BMP280;9663;48.996;8.334;2023-06-14T03:26:15;99774.59;;;21.17
19061;BMP280;9663;48.996;8.334;2023-06-14T03:28:44;99780.59;;;21.17
19061;BMP280;9663;48.996;8.334;2023-06-14T03:31:12;99783.91;;;21.19
19061;BMP280;9663;48.996;8.334;2023-06-14T03:33:38;99785.50;;;21.22
19061;BMP280;9663;48.996;8.334;2023-06-14T03:36:05;99798.22;;;21.25
19061;BMP280;9663;48.996;8.334;2023-06-14T03:38:31;99790.41;;;21.26
19061;BMP280;9663;48.996;8.334;2023-06-14T03:40:56;99794.47;;;21.30
19061;BMP280;9663;48.996;8.334;2023-06-14T03:43:22;99794.31;;;21.33
19061;BMP280;9663;48.996;8.334;2023-06-14T03:45:48;99789.00;;;21.36
19061;BMP280;9663;48.996;8.334;2023-06-14T03:48:13;99794.91;;;21.38
19061;BMP280;9663;48.996;8.334;2023-06-14T03:50:39;99808.41;;;21.43
19061;BMP280;9663;48.996;8.334;2023-06-14T03:53:06;99810.91;;;21.44
19061;BMP280;9663;48.996;8.334;2023-06-14T03:55:32;99806.50;;;21.46
19061;BMP280;9663;48.996;8.334;2023-06-14T03:57:59;99821.00;;;21.49
19061;BMP280;9663;48.996;8.334;2023-06-14T04:00:25;99814.88;;;21.50
19061;BMP280;9663;48.996;8.334;2023-06-14T04:02:50;99825.06;;;21.53
19061;BMP280;9663;48.996;8.334;2023-06-14T04:05:17;99830.13;;;21.54
19061;BMP280;9663;48.996;8.334;2023-06-14T04:07:45;99830.06;;;21.56
19061;BMP280;9663;48.996;8.334;2023-06-14T04:10:15;99823.88;;;21.58
19061;BMP280;9663;48.996;8.334;2023-06-14T04:12:41;99822.03;;;21.60
19061;BMP280;9663;48.996;8.334;2023-06-14T04:15:08;99826.22;;;21.63
19061;BMP280;9663;48.996;8.334;2023-06-14T04:17:37;99824.38;;;21.65
19061;BMP280;9663;48.996;8.334;2023-06-14T04:20:04;99833.72;;;21.67
19061;BMP280;9663;48.996;8.334;2023-06-14T04:22:35;99836.13;;;21.70
19061;BMP280;9663;48.996;8.334;2023-06-14T04:25:02;99835.03;;;21.74
19061;BMP280;9663;48.996;8.334;2023-06-14T04:27:31;99844.06;;;21.81
19061;BMP280;9663;48.996;8.334;2023-06-14T04:30:00;99846.34;;;21.87
19061;BMP280;9663;48.996;8.334;2023-06-14T04:32:29;99840.06;;;21.91
19061;BMP280;9663;48.996;8.334;2023-06-14T04:35:06;99845.63;;;21.99
19061;BMP280;9663;48.996;8.334;2023-06-14T04:37:32;99847.81;;;22.06
19061;BMP280;9663;48.996;8.334;2023-06-14T04:39:59;99850.66;;;22.16
19061;BMP280;9663;48.996;8.334;2023-06-14T04:42:25;99858.75;;;22.25
19061;BMP280;9663;48.996;8.334;2023-06-14T04:44:56;99849.56;;;22.35
19061;BMP280;9663;48.996;8.334;2023-06-14T04:47:22;99855.88;;;22.45
19061;BMP280;9663;48.996;8.334;2023-06-14T04:49:50;99851.81;;;22.55
19061;BMP280;9663;48.996;8.334;2023-06-14T04:52:18;99857.38;;;22.63
19061;BMP280;9663;48.996;8.334;2023-06-14T04:54:47;99861.44;;;22.67
19061;BMP280;9663;48.996;8.334;2023-06-14T04:57:12;99860.16;;;22.73
19061;BMP280;9663;48.996;8.334;2023-06-14T04:59:46;99871.72;;;22.82
19061;BMP280;9663;48.996;8.334;2023-06-14T05:02:12;99871.41;;;22.86
19061;BMP280;9663;48.996;8.334;2023-06-14T05:04:38;99871.09;;;22.92
19061;BMP280;9663;48.996;8.334;2023-06-14T05:07:07;99875.06;;;22.98
19061;BMP280;9663;48.996;8.334;2023-06-14T05:09:33;99874.88;;;23.01
19061;BMP280;9663;48.996;8.334;2023-06-14T05:11:59;99880.69;;;23.04
19061;BMP280;9663;48.996;8.334;2023-06-14T05:14:26;99884.69;;;23.10
19061;BMP280;9663;48.996;8.334;2023-06-14T05:16:54;99883.31;;;23.18
19061;BMP280;9663;48.996;8.334;2023-06-14T05:19:20;99880.31;;;23.24
19061;BMP280;9663;48.996;8.334;2023-06-14T05:21:47;99879.97;;;23.30
19061;BMP280;9663;48.996;8.334;2023-06-14T05:24:14;99886.50;;;23.35
19061;BMP280;9663;48.996;8.334;2023-06-14T05:26:40;99887.03;;;23.40
19061;BMP280;9663;48.996;8.334;2023-06-14T05:29:06;99888.72;;;23.41
19061;BMP280;9663;48.996;8.334;2023-06-14T05:31:31;99895.44;;;23.44
19061;BMP280;9663;48.996;8.334;2023-06-14T05:33:58;99891.94;;;23.45
19061;BMP280;9663;48.996;8.334;2023-06-14T05:36:23;99895.19;;;23.48
19061;BMP280;9663;48.996;8.334;2023-06-14T05:38:51;99890.63;;;23.52
19061;BMP280;9663;48.996;8.334;2023-06-14T05:41:26;99897.31;;;23.56
19061;BMP280;9663;48.996;8.334;2023-06-14T05:43:55;99900.28;;;23.63
19061;BMP280;9663;48.996;8.334;2023-06-14T05:46:21;99900.84;;;23.68
19061;BMP280;9663;48.996;8.334;2023-06-14T05:48:50;99904.06;;;23.72
19061;BMP280;9663;48.996;8.334;2023-06-14T05:51:16;99907.19;;;23.77
19061;BMP280;9663;48.996;8.334;2023-06-14T05:53:48;99909.28;;;23.84
19061;BMP280;9663;48.996;8.334;2023-06-14T05:56:14;99913.13;;;23.91
19061;BMP280;9663;48.996;8.334;2023-06-14T05:58:40;99911.00;;;23.98
19061;BMP280;9663;48.996;8.334;2023-06-14T06:01:06;99919.13;;;24.05
19061;BMP280;9663;48.996;8.334;2023-06-14T06:03:32;99910.09;;;24.11
19061;BMP280;9663;48.996;8.334;2023-06-14T06:05:58;99906.22;;;24.18
19061;BMP280;9663;48.996;8.334;2023-06-14T06:08:24;99917.84;;;24.25
19061;BMP280;9663;48.996;8.334;2023-06-14T06:10:50;99913.38;;;24.27
19061;BMP280;9663;48.996;8.334;2023-06-14T06:13:16;99910.53;;;24.31
19061;BMP280;9663;48.996;8.334;2023-06-14T06:15:42;99914.47;;;24.37
19061;BMP280;9663;48.996;8.334;2023-06-14T06:18:08;99914.91;;;24.43
19061;BMP280;9663;48.996;8.334;2023-06-14T06:20:34;99915.34;;;24.49
19061;BMP280;9663;48.996;8.334;2023-06-14T06:23:02;99916.59;;;24.56
19061;BMP280;9663;48.996;8.334;2023-06-14T06:25:28;99908.31;;;24.64
19061;BMP280;9663;48.996;8.334;2023-06-14T06:27:55;99905.22;;;24.71
19061;BMP280;9663;48.996;8.334;2023-06-14T06:30:24;99911.78;;;24.77
19061;BMP280;9663;48.996;8.334;2023-06-14T06:32:50;99914.88;;;24.82
19061;BMP280;9663;48.996;8.334;2023-06-14T06:35:16;99911.75;;;24.89
19061;BMP280;9663;48.996;8.334;2023-06-14T06:37:42;99917.81;;;25.02
19061;BMP280;9663;48.996;8.334;2023-06-14T06:40:09;99925.47;;;25.16
19061;BMP280;9663;48.996;8.334;2023-06-14T06:42:35;99921.56;;;25.23
19061;BMP280;9663;48.996;8.334;2023-06-14T06:45:01;99922.16;;;25.26
19061;BMP280;9663;48.996;8.334;2023-06-14T06:47:27;99925.19;;;25.33
19061;BMP280;9663;48.996;8.334;2023-06-14T06:49:52;99925.50;;;25.40
19061;BMP280;9663;48.996;8.334;2023-06-14T06:52:18;99929.91;;;25.51
19061;BMP280;9663;48.996;8.334;2023-06-14T06:54:44;99937.69;;;25.63
19061;BMP280;9663;48.996;8.334;2023-06-14T06:57:09;99941.97;;;25.77
19061;BMP280;9663;48.996;8.334;2023-06-14T06:59:36;99939.31;;;25.89
19061;BMP280;9663;48.996;8.334;2023-06-14T07:02:02;99942.69;;;26.02
19061;BMP280;9663;48.996;8.334;2023-06-14T07:04:28;99947.22;;;26.11
19061;BMP280;9663;48.996;8.334;2023-06-14T07:06:54;99950.31;;;26.16
19061;BMP280;9663;48.996;8.334;2023-06-14T07:09:20;99958.75;;;26.19
19061;BMP280;9663;48.996;8.334;2023-06-14T07:11:47;99951.78;;;26.20
19061;BMP280;9663;48.996;8.334;2023-06-14T07:14:13;99957.69;;;26.21
19061;BMP280;9663;48.996;8.334;2023-06-14T07:16:39;99956.75;;;26.22
19061;BMP280;9663;48.996;8.334;2023-06-14T07:19:05;99953.84;;;26.27
19061;BMP280;9663;48.996;8.334;2023-06-14T07:21:31;99953.63;;;26.30
19061;BMP280;9663;48.996;8.334;2023-06-14T07:23:57;99965.13;;;26.38
19061;BMP280;9663;48.996;8.334;2023-06-14T07:26:23;99956.88;;;26.44
19061;BMP280;9663;48.996;8.334;2023-06-14T07:28:49;99964.09;;;26.52
19061;BMP280;9663;48.996;8.334;2023-06-14T07:31:17;99963.56;;;26.59
19061;BMP280;9663;48.996;8.334;2023-06-14T07:33:45;99975.88;;;26.68
19061;BMP280;9663;48.996;8.334;2023-06-14T07:36:11;99964.69;;;26.78
19061;BMP280;9663;48.996;8.334;2023-06-14T07:38:36;99972.53;;;26.89
19061;BMP280;9663;48.996;8.334;2023-06-14T07:41:02;99965.47;;;27.02
19061;BMP280;9663;48.996;8.334;2023-06-14T07:43:28;99964.69;;;27.12
19061;BMP280;9663;48.996;8.334;2023-06-14T07:45:54;99957.94;;;27.21
19061;BMP280;9663;48.996;8.334;2023-06-14T07:48:20;99960.19;;;27.25
19061;BMP280;9663;48.996;8.334;2023-06-14T07:50:46;99965.88;;;27.30
19061;BMP280;9663;48.996;8.334;2023-06-14T07:53:12;99962.81;;;27.36
19061;BMP280;9663;48.996;8.334;2023-06-14T07:55:37;99958.47;;;27.48
19061;BMP280;9663;48.996;8.334;2023-06-14T07:58:04;99953.72;;;27.63
19061;BMP280;9663;48.996;8.334;2023-06-14T08:00:30;99958.56;;;27.79
19061;BMP280;9663;48.996;8.334;2023-06-14T08:02:56;99962.44;;;27.95
19061;BMP280;9663;48.996;8.334;2023-06-14T08:05:25;99961.38;;;28.08
19061;BMP280;9663;48.996;8.334;2023-06-14T08:07:51;99959.69;;;28.18
19061;BMP280;9663;48.996;8.334;2023-06-14T08:10:18;99956.94;;;28.31
19061;BMP280;9663;48.996;8.334;2023-06-14T08:12:43;99959.94;;;28.46
19061;BMP280;9663;48.996;8.334;2023-06-14T08:15:10;99959.09;;;28.57
19061;BMP280;9663;48.996;8.334;2023-06-14T08:17:35;99955.63;;;28.67
19061;BMP280;9663;48.996;8.334;2023-06-14T08:20:02;99968.63;;;28.78
19061;BMP280;9663;48.996;8.334;2023-06-14T08:22:30;99964.41;;;28.86
19061;BMP280;9663;48.996;8.334;2023-06-14T08:25:00;99966.25;;;28.95
19061;BMP280;9663;48.996;8.334;2023-06-14T08:27:26;99963.81;;;29.03
19061;BMP280;9663;48.996;8.334;2023-06-14T08:29:53;99966.38;;;29.14
19061;BMP280;9663;48.996;8.334;2023-06-14T08:32:18;99961.94;;;29.26
19061;BMP280;9663;48.996;8.334;2023-06-14T08:34:44;99961.97;;;29.35
19061;BMP280;9663;48.996;8.334;2023-06-14T08:37:10;99963.94;;;29.42
19061;BMP280;9663;48.996;8.334;2023-06-14T08:39:36;99965.88;;;29.50
19061;BMP280;9663;48.996;8.334;2023-06-14T08:42:04;99956.72;;;29.55
19061;BMP280;9663;48.996;8.334;2023-06-14T08:44:31;99962.91;;;29.64
19061;BMP280;9663;48.996;8.334;2023-06-14T08:46:59;99959.25;;;29.75
19061;BMP280;9663;48.996;8.334;2023-06-14T08:49:25;99963.97;;;29.81
19061;BMP280;9663;48.996;8.334;2023-06-14T08:51:59;99964.66;;;29.83
19061;BMP280;9663;48.996;8.334;2023-06-14T08:54:29;99955.88;;;29.84
19061;BMP280;9663;48.996;8.334;2023-06-14T08:56:59;99969.50;;;29.88
19061;BMP280;9663;48.996;8.334;2023-06-14T08:59:26;99962.63;;;29.96
19061;BMP280;9663;48.996;8.334;2023-06-14T09:01:53;99964.03;;;30.10
19061;BMP280;9663;48.996;8.334;2023-06-14T09:04:21;99959.50;;;30.21
19061;BMP280;9663;48.996;8.334;2023-06-14T09:06:56;99962.00;;;30.32
19061;BMP280;9663;48.996;8.334;2023-06-14T09:09:22;99954.03;;;30.43
19061;BMP280;9663;48.996;8.334;2023-06-14T09:11:54;99951.31;;;30.54
19061;BMP280;9663;48.996;8.334;2023-06-14T09:14:23;99956.81;;;30.60
19061;BMP280;9663;48.996;8.334;2023-06-14T09:16:53;99957.75;;;30.68
19061;BMP280;9663;48.996;8.334;2023-06-14T09:19:24;99965.03;;;30.74
19061;BMP280;9663;48.996;8.334;2023-06-14T09:21:50;99954.72;;;30.82
19061;BMP280;9663;48.996;8.334;2023-06-14T09:24:19;99951.44;;;30.90
19061;BMP280;9663;48.996;8.334;2023-06-14T09:26:47;99957.47;;;31.00
19061;BMP280;9663;48.996;8.334;2023-06-14T09:29:13;99954.69;;;31.10
19061;BMP280;9663;48.996;8.334;2023-06-14T09:31:39;99950.41;;;31.19
19061;BMP280;9663;48.996;8.334;2023-06-14T09:34:05;99960.44;;;31.23
19061;BMP280;9663;48.996;8.334;2023-06-14T09:36:32;99959.88;;;31.29
19061;BMP280;9663;48.996;8.334;2023-06-14T09:38:59;99963.69;;;31.35
19061;BMP280;9663;48.996;8.334;2023-06-14T09:41:34;99964.00;;;31.41
19061;BMP280;9663;48.996;8.334;2023-06-14T09:44:05;99959.81;;;31.48
19061;BMP280;9663;48.996;8.334;2023-06-14T09:46:33;99967.78;;;31.56
19061;BMP280;9663;48.996;8.334;2023-06-14T09:48:59;99967.63;;;31.67
19061;BMP280;9663;48.996;8.334;2023-06-14T09:51:27;99963.53;;;31.82
19061;BMP280;9663;48.996;8.334;2023-06-14T09:53:59;99966.69;;;31.94
19061;BMP280;9663;48.996;8.334;2023-06-14T09:56:41;99969.41;;;32.02
19061;BMP280;9663;48.996;8.334;2023-06-14T09:59:10;99971.69;;;32.05
19061;BMP280;9663;48.996;8.334;2023-06-14T10:01:42;99967.28;;;32.06
19061;BMP280;9663;48.996;8.334;2023-06-14T10:04:09;99972.78;;;32.12
19061;BMP280;9663;48.996;8.334;2023-06-14T10:06:45;99970.81;;;32.14
19061;BMP280;9663;48.996;8.334;2023-06-14T10:09:12;99974.41;;;32.13
19061;BMP280;9663;48.996;8.334;2023-06-14T10:11:38;99960.91;;;32.08
19061;BMP280;9663;48.996;8.334;2023-06-14T10:14:12;99958.97;;;32.10
19061;BMP280;9663;48.996;8.334;2023-06-14T10:16:45;99963.63;;;32.16
19061;BMP280;9663;48.996;8.334;2023-06-14T10:19:27;99959.44;;;32.23
19061;BMP280;9663;48.996;8.334;2023-06-14T10:22:39;99957.03;;;32.30
19061;BMP280;9663;48.996;8.334;2023-06-14T10:25:13;99958.91;;;32.37
19061;BMP280;9663;48.996;8.334;2023-06-14T10:27:51;99951.88;;;32.37
19061;BMP280;9663;48.996;8.334;2023-06-14T10:30:16;99933.94;;;32.33
19061;BMP280;9663;48.996;8.334;2023-06-14T10:33:04;99945.44;;;32.32
19061;BMP280;9663;48.996;8.334;2023-06-14T10:35:31;99948.34;;;32.46
19061;BMP280;9663;48.996;8.334;2023-06-14T10:38:07;99950.47;;;32.60
19061;BMP280;9663;48.996;8.334;2023-06-14T10:40:34;99946.91;;;32.69
19061;BMP280;9663;48.996;8.334;2023-06-14T10:42:59;99960.78;;;32.79
19061;BMP280;9663;48.996;8.334;2023-06-14T10:45:25;99953.34;;;32.92
19061;BMP280;9663;48.996;8.334;2023-06-14T10:47:51;99949.19;;;33.07
19061;BMP280;9663;48.996;8.334;2023-06-14T10:50:28;99947.78;;;33.20
19061;BMP280;9663;48.996;8.334;2023-06-14T10:52:59;99953.75;;;33.30
19061;BMP280;9663;48.996;8.334;2023-06-14T10:55:24;99950.09;;;33.40
19061;BMP280;9663;48.996;8.334;2023-06-14T10:57:54;99949.63;;;33.53
19061;BMP280;9663;48.996;8.334;2023-06-14T11:00:27;99951.19;;;33.63
19061;BMP280;9663;48.996;8.334;2023-06-14T11:05:58;99947.38;;;33.91
19061;BMP280;9663;48.996;8.334;2023-06-14T11:08:27;99952.00;;;34.05
19061;BMP280;9663;48.996;8.334;2023-06-14T11:11:00;99938.03;;;34.04
19061;BMP280;9663;48.996;8.334;2023-06-14T11:13:31;99933.16;;;33.84
19061;BMP280;9663;48.996;8.334;2023-06-14T11:15:56;99939.31;;;33.59
19061;BMP280;9663;48.996;8.334;2023-06-14T11:18:24;99936.41;;;33.37
19061;BMP280;9663;48.996;8.334;2023-06-14T11:20:50;99932.97;;;33.11
19061;BMP280;9663;48.996;8.334;2023-06-14T11:23:16;99924.63;;;32.90
19061;BMP280;9663;48.996;8.334;2023-06-14T11:25:42;99944.66;;;32.74
19061;BMP280;9663;48.996;8.334;2023-06-14T11:28:08;99941.59;;;32.61
19061;BMP280;9663;48.996;8.334;2023-06-14T11:30:33;99939.31;;;32.83
19061;BMP280;9663;48.996;8.334;2023-06-14T11:32:59;99940.72;;;33.79
19061;BMP280;9663;48.996;8.334;2023-06-14T11:35:26;99937.25;;;35.22
19061;BMP280;9663;48.996;8.334;2023-06-14T11:37:56;99931.19;;;36.73
19061;BMP280;9663;48.996;8.334;2023-06-14T11:40:25;99926.94;;;38.21
19061;BMP280;9663;48.996;8.334;2023-06-14T11:42:59;99920.63;;;39.45
19061;BMP280;9663;48.996;8.334;2023-06-14T11:45:26;99912.56;;;40.32
19061;BMP280;9663;48.996;8.334;2023-06-14T11:47:55;99910.94;;;41.08
19061;BMP280;9663;48.996;8.334;2023-06-14T11:50:25;99901.59;;;41.56
19061;BMP280;9663;48.996;8.334;2023-06-14T11:52:59;99900.19;;;41.53
19061;BMP280;9663;48.996;8.334;2023-06-14T11:55:29;99905.47;;;40.71
19061;BMP280;9663;48.996;8.334;2023-06-14T11:57:55;99909.50;;;39.63
19061;BMP280;9663;48.996;8.334;2023-06-14T12:00:25;99911.00;;;38.84
19061;BMP280;9663;48.996;8.334;2023-06-14T12:02:55;99905.56;;;39.19
19061;BMP280;9663;48.996;8.334;2023-06-14T12:05:22;99901.16;;;39.72
19061;BMP280;9663;48.996;8.334;2023-06-14T12:07:49;99900.00;;;39.47
19061;BMP280;9663;48.996;8.334;2023-06-14T12:10:16;99902.59;;;39.01
19061;BMP280;9663;48.996;8.334;2023-06-14T12:12:42;99909.56;;;38.33
19061;BMP280;9663;48.996;8.334;2023-06-14T12:15:09;99910.13;;;37.59
19061;BMP280;9663;48.996;8.334;2023-06-14T12:17:38;99910.50;;;36.90
19061;BMP280;9663;48.996;8.334;2023-06-14T12:20:12;99917.97;;;36.28
19061;BMP280;9663;48.996;8.334;2023-06-14T12:22:50;99922.72;;;35.80
19061;BMP280;9663;48.996;8.334;2023-06-14T12:25:33;99919.03;;;35.51
19061;BMP280;9663;48.996;8.334;2023-06-14T12:28:09;99923.53;;;35.35
19061;BMP280;9663;48.996;8.334;2023-06-14T12:30:36;99918.94;;;35.29
19061;BMP280;9663;48.996;8.334;2023-06-14T12:33:04;99921.09;;;36.01
19061;BMP280;9663;48.996;8.334;2023-06-14T12:35:30;99907.13;;;37.18
19061;BMP280;9663;48.996;8.334;2023-06-14T12:37:56;99898.91;;;38.48
19061;BMP280;9663;48.996;8.334;2023-06-14T12:40:22;99903.19;;;39.70
19061;BMP280;9663;48.996;8.334;2023-06-14T12:42:48;99891.75;;;40.93
19061;BMP280;9663;48.996;8.334;2023-06-14T12:45:14;99896.56;;;41.85
19061;BMP280;9663;48.996;8.334;2023-06-14T12:47:40;99898.44;;;42.46
19061;BMP280;9663;48.996;8.334;2023-06-14T12:50:06;99890.19;;;43.02
19061;BMP280;9663;48.996;8.334;2023-06-14T12:52:32;99897.00;;;43.69
19061;BMP280;9663;48.996;8.334;2023-06-14T12:55:04;99886.25;;;44.16
19061;BMP280;9663;48.996;8.334;2023-06-14T12:57:31;99891.81;;;44.44
19061;BMP280;9663;48.996;8.334;2023-06-14T12:59:57;99891.47;;;44.52
19061;BMP280;9663;48.996;8.334;2023-06-14T13:02:22;99885.34;;;44.97
19061;BMP280;9663;48.996;8.334;2023-06-14T13:04:50;99888.16;;;45.41
19061;BMP280;9663;48.996;8.334;2023-06-14T13:07:16;99898.72;;;45.58
19061;BMP280;9663;48.996;8.334;2023-06-14T13:09:42;99890.88;;;45.68
19061;BMP280;9663;48.996;8.334;2023-06-14T13:12:10;99896.19;;;45.91
19061;BMP280;9663;48.996;8.334;2023-06-14T13:14:40;99897.66;;;45.99
19061;BMP280;9663;48.996;8.334;2023-06-14T13:17:09;99895.94;;;46.20
19061;BMP280;9663;48.996;8.334;2023-06-14T13:19:35;99891.78;;;46.46
19061;BMP280;9663;48.996;8.334;2023-06-14T13:22:01;99885.97;;;46.65
19061;BMP280;9663;48.996;8.334;2023-06-14T13:24:27;99881.19;;;47.04
19061;BMP280;9663;48.996;8.334;2023-06-14T13:26:56;99884.91;;;47.41
19061;BMP280;9663;48.996;8.334;2023-06-14T13:29:23;99879.50;;;47.83
19061;BMP280;9663;48.996;8.334;2023-06-14T13:31:48;99875.13;;;48.30
19061;BMP280;9663;48.996;8.334;2023-06-14T13:34:14;99878.06;;;48.60
19061;BMP280;9663;48.996;8.334;2023-06-14T13:36:40;99887.97;;;48.54
19061;BMP280;9663;48.996;8.334;2023-06-14T13:50:09;99889.03;;;45.30
19061;BMP280;9663;48.996;8.334;2023-06-14T13:52:35;99881.91;;;45.35
19061;BMP280;9663;48.996;8.334;2023-06-14T13:55:02;99881.66;;;45.37
19061;BMP280;9663;48.996;8.334;2023-06-14T13:57:27;99886.34;;;45.30
19061;BMP280;9663;48.996;8.334;2023-06-14T13:59:53;99880.22;;;45.07
19061;BMP280;9663;48.996;8.334;2023-06-14T14:02:21;99887.31;;;44.56
19061;BMP280;9663;48.996;8.334;2023-06-14T14:04:47;99891.63;;;43.87
19061;BMP280;9663;48.996;8.334;2023-06-14T14:07:18;99885.44;;;43.04
19061;BMP280;9663;48.996;8.334;2023-06-14T14:09:44;99888.13;;;42.31
19061;BMP280;9663;48.996;8.334;2023-06-14T14:12:10;99889.91;;;41.69
19061;BMP280;9663;48.996;8.334;2023-06-14T14:14:37;99888.66;;;41.09
19061;BMP280;9663;48.996;8.334;2023-06-14T14:17:02;99889.31;;;40.53
19061;BMP280;9663;48.996;8.334;2023-06-14T14:19:29;99895.56;;;40.07
19061;BMP280;9663;48.996;8.334;2023-06-14T14:21:54;99895.69;;;39.80
19061;BMP280;9663;48.996;8.334;2023-06-14T14:24:20;99907.41;;;39.18
19061;BMP280;9663;48.996;8.334;2023-06-14T14:26:46;99894.56;;;38.88
19061;BMP280;9663;48.996;8.334;2023-06-14T14:29:14;99906.91;;;38.81
19061;BMP280;9663;48.996;8.334;2023-06-14T14:31:40;99904.88;;;39.04
19061;BMP280;9663;48.996;8.334;2023-06-14T14:34:05;99902.72;;;39.60
19061;BMP280;9663;48.996;8.334;2023-06-14T14:36:31;99897.28;;;40.53
19061;BMP280;9663;48.996;8.334;2023-06-14T14:38:59;99889.91;;;41.07